sensor_id;sensor_type;location;lat;lon;timestamp;temperature;humidity
42989;DHT22;28622;43.716;20.668;2023-03-01T00:01:46;3.70;99.90
42989;DHT22;28622;43.716;20.668;2023-03-01T00:04:12;3.70;99.90
42989;DHT22;28622;43.716;20.668;2023-03-01T00:06:38;3.70;99.90
42989;DHT22;28622;43.716;20.668;2023-03-01T00:09:04;3.70;99.90
42989;DHT22;28622;43.716;20.668;2023-03-01T00:11:32;3.70;99.90
42989;DHT22;28622;43.716;20.668;2023-03-01T00:13:59;3.70;99.90
42989;DHT22;28622;43.716;20.668;2023-03-01T00:16:32;3.70;99.90
42989;DHT22;28622;43.716;20.668;2023-03-01T00:19:01;3.70;99.90
42989;DHT22;28622;43.716;20.668;2023-03-01T00:21:27;3.60;99.90
42989;DHT22;28622;43.716;20.668;2023-03-01T00:23:53;3.70;99.90
42989;DHT22;28622;43.716;20.668;2023-03-01T00:26:23;3.60;99.90
42989;DHT22;28622;43.716;20.668;2023-03-01T00:28:51;3.60;99.90
42989;DHT22;28622;43.716;20.668;2023-03-01T00:31:20;3.60;99.90
42989;DHT22;28622;43.716;20.668;2023-03-01T00:33:46;3.60;99.90
42989;DHT22;28622;43.716;20.668;2023-03-01T00:36:15;3.60;99.90
42989;DHT22;28622;43.716;20.668;2023-03-01T00:38:43;3.70;99.90
42989;DHT22;28622;43.716;20.668;2023-03-01T00:41:11;3.70;99.90
42989;DHT22;28622;43.716;20.668;2023-03-01T00:43:38;3.70;99.90
42989;DHT22;28622;43.716;20.668;2023-03-01T00:46:05;3.70;99.90
42989;DHT22;28622;43.716;20.668;2023-03-01T00:48:32;3.70;99.90
42989;DHT22;28622;43.716;20.668;2023-03-01T00:51:07;3.60;99.90
42989;DHT22;28622;43.716;20.668;2023-03-01T00:53:33;3.60;99.90
42989;DHT22;28622;43.716;20.668;2023-03-01T00:55:59;3.70;99.90
42989;DHT22;28622;43.716;20.668;2023-03-01T00:58:25;3.60;99.90
42989;DHT22;28622;43.716;20.668;2023-03-01T01:00:51;3.60;99.90
42989;DHT22;28622;43.716;20.668;2023-03-01T01:03:18;3.60;99.90
42989;DHT22;28622;43.716;20.668;2023-03-01T01:05:44;3.60;99.90
42989;DHT22;28622;43.716;20.668;2023-03-01T01:08:10;3.60;99.90
42989;DHT22;28622;43.716;20.668;2023-03-01T01:10:36;3.70;99.90
42989;DHT22;28622;43.716;20.668;2023-03-01T01:13:02;3.70;99.90
42989;DHT22;28622;43.716;20.668;2023-03-01T01:15:28;3.70;99.90
42989;DHT22;28622;43.716;20.668;2023-03-01T01:17:54;3.60;99.90
42989;DHT22;28622;43.716;20.668;2023-03-01T01:20:20;3.60;99.90
42989;DHT22;28622;43.716;20.668;2023-03-01T01:22:46;3.60;99.90
42989;DHT22;28622;43.716;20.668;2023-03-01T01:25:12;3.60;99.90
42989;DHT22;28622;43.716;20.668;2023-03-01T01:27:37;3.60;99.90
42989;DHT22;28622;43.716;20.668;2023-03-01T01:30:04;3.60;99.90
42989;DHT22;28622;43.716;20.668;2023-03-01T01:32:30;3.60;99.90
42989;DHT22;28622;43.716;20.668;2023-03-01T01:34:56;3.60;99.90
42989;DHT22;28622;43.716;20.668;2023-03-01T01:37:21;3.60;99.90
42989;DHT22;28622;43.716;20.668;2023-03-01T01:39:47;3.60;99.90
42989;DHT22;28622;43.716;20.668;2023-03-01T01:42:18;3.60;99.90
42989;DHT22;28622;43.716;20.668;2023-03-01T01:44:47;3.60;99.90
42989;DHT22;28622;43.716;20.668;2023-03-01T01:47:17;3.60;99.90
42989;DHT22;28622;43.716;20.668;2023-03-01T01:52:18;3.70;99.90
42989;DHT22;28622;43.716;20.668;2023-03-01T01:54:59;3.60;99.90
42989;DHT22;28622;43.716;20.668;2023-03-01T01:57:32;3.70;99.90
42989;DHT22;28622;43.716;20.668;2023-03-01T02:00:04;3.70;99.90
42989;DHT22;28622;43.716;20.668;2023-03-01T02:02:31;3.60;99.90
42989;DHT22;28622;43.716;20.668;2023-03-01T02:05:09;3.60;99.90
42989;DHT22;28622;43.716;20.668;2023-03-01T02:07:38;3.60;99.90
42989;DHT22;28622;43.716;20.668;2023-03-01T02:10:05;3.50;99.90
42989;DHT22;28622;43.716;20.668;2023-03-01T02:12:32;3.60;99.90
42989;DHT22;28622;43.716;20.668;2023-03-01T02:14:59;3.50;99.90
42989;DHT22;28622;43.716;20.668;2023-03-01T02:17:28;3.60;99.90
42989;DHT22;28622;43.716;20.668;2023-03-01T02:22:44;3.60;99.90
42989;DHT22;28622;43.716;20.668;2023-03-01T02:27:57;3.60;99.90
42989;DHT22;28622;43.716;20.668;2023-03-01T02:30:24;3.60;99.90
42989;DHT22;28622;43.716;20.668;2023-03-01T02:32:53;3.60;99.90
42989;DHT22;28622;43.716;20.668;2023-03-01T02:35:19;3.60;99.90
42989;DHT22;28622;43.716;20.668;2023-03-01T02:37:46;3.60;99.90
42989;DHT22;28622;43.716;20.668;2023-03-01T02:40:16;3.60;99.90
42989;DHT22;28622;43.716;20.668;2023-03-01T02:42:57;3.60;99.90
42989;DHT22;28622;43.716;20.668;2023-03-01T02:45:23;3.60;99.90
42989;DHT22;28622;43.716;20.668;2023-03-01T02:47:49;3.50;99.90
42989;DHT22;28622;43.716;20.668;2023-03-01T02:53:07;3.40;99.90
42989;DHT22;28622;43.716;20.668;2023-03-01T02:55:34;3.40;99.90
42989;DHT22;28622;43.716;20.668;2023-03-01T02:58:02;3.50;99.90
42989;DHT22;28622;43.716;20.668;2023-03-01T03:00:32;3.50;99.90
42989;DHT22;28622;43.716;20.668;2023-03-01T03:02:59;3.50;99.90
42989;DHT22;28622;43.716;20.668;2023-03-01T03:05:27;3.50;99.90
42989;DHT22;28622;43.716;20.668;2023-03-01T03:07:54;3.50;99.90
42989;DHT22;28622;43.716;20.668;2023-03-01T03:10:26;3.50;99.90
42989;DHT22;28622;43.716;20.668;2023-03-01T03:12:56;3.60;99.90
42989;DHT22;28622;43.716;20.668;2023-03-01T03:15:23;3.60;99.90
42989;DHT22;28622;43.716;20.668;2023-03-01T03:17:49;3.60;99.90
42989;DHT22;28622;43.716;20.668;2023-03-01T03:20:17;3.60;99.90
42989;DHT22;28622;43.716;20.668;2023-03-01T03:22:48;3.60;99.90
42989;DHT22;28622;43.716;20.668;2023-03-01T03:25:15;3.70;99.90
42989;DHT22;28622;43.716;20.668;2023-03-01T03:27:43;3.70;99.90
42989;DHT22;28622;43.716;20.668;2023-03-01T03:30:11;3.70;99.90
42989;DHT22;28622;43.716;20.668;2023-03-01T03:32:42;3.70;99.90
42989;DHT22;28622;43.716;20.668;2023-03-01T03:35:18;3.70;99.90
42989;DHT22;28622;43.716;20.668;2023-03-01T03:37:44;3.60;99.90
42989;DHT22;28622;43.716;20.668;2023-03-01T03:40:49;3.50;99.90
42989;DHT22;28622;43.716;20.668;2023-03-01T03:43:18;3.50;99.90
42989;DHT22;28622;43.716;20.668;2023-03-01T03:45:45;3.60;99.90
42989;DHT22;28622;43.716;20.668;2023-03-01T03:48:12;3.50;99.90
42989;DHT22;28622;43.716;20.668;2023-03-01T03:50:39;3.50;99.90
42989;DHT22;28622;43.716;20.668;2023-03-01T03:53:11;3.50;99.90
42989;DHT22;28622;43.716;20.668;2023-03-01T03:55:37;3.50;99.90
42989;DHT22;28622;43.716;20.668;2023-03-01T03:58:06;3.50;99.90
42989;DHT22;28622;43.716;20.668;2023-03-01T04:00:34;3.60;99.90
42989;DHT22;28622;43.716;20.668;2023-03-01T04:03:00;3.60;99.90
42989;DHT22;28622;43.716;20.668;2023-03-01T04:05:26;3.50;99.90
42989;DHT22;28622;43.716;20.668;2023-03-01T04:07:56;3.60;99.90
42989;DHT22;28622;43.716;20.668;2023-03-01T04:10:30;3.50;99.90
42989;DHT22;28622;43.716;20.668;2023-03-01T04:12:56;3.50;99.90
42989;DHT22;28622;43.716;20.668;2023-03-01T04:15:23;3.50;99.90
42989;DHT22;28622;43.716;20.668;2023-03-01T04:17:51;3.50;99.90
42989;DHT22;28622;43.716;20.668;2023-03-01T04:20:23;3.50;99.90
42989;DHT22;28622;43.716;20.668;2023-03-01T04:23:09;3.50;99.90
42989;DHT22;28622;43.716;20.668;2023-03-01T04:25:50;3.60;99.90
42989;DHT22;28622;43.716;20.668;2023-03-01T04:28:28;3.60;99.90
42989;DHT22;28622;43.716;20.668;2023-03-01T04:30:55;3.60;99.90
42989;DHT22;28622;43.716;20.668;2023-03-01T04:33:22;3.60;99.90
42989;DHT22;28622;43.716;20.668;2023-03-01T04:35:48;3.70;99.90
42989;DHT22;28622;43.716;20.668;2023-03-01T04:38:15;3.70;99.90
42989;DHT22;28622;43.716;20.668;2023-03-01T04:40:41;3.70;99.90
42989;DHT22;28622;43.716;20.668;2023-03-01T04:43:09;3.70;99.90
42989;DHT22;28622;43.716;20.668;2023-03-01T04:45:35;3.70;99.90
42989;DHT22;28622;43.716;20.668;2023-03-01T04:48:01;3.70;99.90
42989;DHT22;28622;43.716;20.668;2023-03-01T04:50:27;3.70;99.90
42989;DHT22;28622;43.716;20.668;2023-03-01T04:52:54;3.80;99.90
42989;DHT22;28622;43.716;20.668;2023-03-01T04:55:19;3.70;99.90
42989;DHT22;28622;43.716;20.668;2023-03-01T04:57:45;3.80;99.90
42989;DHT22;28622;43.716;20.668;2023-03-01T05:00:13;3.80;99.90
42989;DHT22;28622;43.716;20.668;2023-03-01T05:02:53;3.70;99.90
42989;DHT22;28622;43.716;20.668;2023-03-01T05:05:25;3.80;99.90
42989;DHT22;28622;43.716;20.668;2023-03-01T05:07:52;3.80;99.90
42989;DHT22;28622;43.716;20.668;2023-03-01T05:10:18;3.80;99.90
42989;DHT22;28622;43.716;20.668;2023-03-01T05:12:44;3.80;99.90
42989;DHT22;28622;43.716;20.668;2023-03-01T05:15:10;3.80;99.90
42989;DHT22;28622;43.716;20.668;2023-03-01T05:17:36;3.80;99.90
42989;DHT22;28622;43.716;20.668;2023-03-01T05:20:01;3.90;99.90
42989;DHT22;28622;43.716;20.668;2023-03-01T05:22:32;3.90;99.90
42989;DHT22;28622;43.716;20.668;2023-03-01T05:24:58;3.80;99.90
42989;DHT22;28622;43.716;20.668;2023-03-01T05:27:23;3.80;99.90
42989;DHT22;28622;43.716;20.668;2023-03-01T05:29:49;3.80;99.90
42989;DHT22;28622;43.716;20.668;2023-03-01T05:32:15;3.80;99.90
42989;DHT22;28622;43.716;20.668;2023-03-01T05:34:41;3.90;99.90
42989;DHT22;28622;43.716;20.668;2023-03-01T05:37:07;3.80;99.90
42989;DHT22;28622;43.716;20.668;2023-03-01T05:39:34;3.80;99.90
42989;DHT22;28622;43.716;20.668;2023-03-01T05:42:01;3.80;99.90
42989;DHT22;28622;43.716;20.668;2023-03-01T05:44:29;3.70;99.90
42989;DHT22;28622;43.716;20.668;2023-03-01T05:46:55;3.80;99.90
42989;DHT22;28622;43.716;20.668;2023-03-01T05:49:21;3.70;99.90
42989;DHT22;28622;43.716;20.668;2023-03-01T05:51:51;3.70;99.90
42989;DHT22;28622;43.716;20.668;2023-03-01T05:54:18;3.70;99.90
42989;DHT22;28622;43.716;20.668;2023-03-01T05:56:44;3.70;99.90
42989;DHT22;28622;43.716;20.668;2023-03-01T05:59:11;3.70;99.90
42989;DHT22;28622;43.716;20.668;2023-03-01T06:01:37;3.70;99.90
42989;DHT22;28622;43.716;20.668;2023-03-01T06:04:04;3.80;99.90
42989;DHT22;28622;43.716;20.668;2023-03-01T06:06:33;3.80;99.90
42989;DHT22;28622;43.716;20.668;2023-03-01T06:08:59;3.90;99.90
42989;DHT22;28622;43.716;20.668;2023-03-01T06:11:24;3.90;99.90
42989;DHT22;28622;43.716;20.668;2023-03-01T06:13:50;3.90;99.90
42989;DHT22;28622;43.716;20.668;2023-03-01T06:16:16;4.00;99.90
42989;DHT22;28622;43.716;20.668;2023-03-01T06:18:42;4.00;99.90
42989;DHT22;28622;43.716;20.668;2023-03-01T06:21:08;4.00;99.90
42989;DHT22;28622;43.716;20.668;2023-03-01T06:23:35;4.00;99.90
42989;DHT22;28622;43.716;20.668;2023-03-01T06:26:05;3.90;99.90
42989;DHT22;28622;43.716;20.668;2023-03-01T06:28:31;3.80;99.90
42989;DHT22;28622;43.716;20.668;2023-03-01T06:30:57;3.90;99.90
42989;DHT22;28622;43.716;20.668;2023-03-01T06:33:23;4.00;99.90
42989;DHT22;28622;43.716;20.668;2023-03-01T06:35:50;4.00;99.90
42989;DHT22;28622;43.716;20.668;2023-03-01T06:38:16;4.10;99.90
42989;DHT22;28622;43.716;20.668;2023-03-01T06:40:44;4.10;99.90
42989;DHT22;28622;43.716;20.668;2023-03-01T06:43:10;4.10;99.90
42989;DHT22;28622;43.716;20.668;2023-03-01T06:45:36;4.10;99.90
42989;DHT22;28622;43.716;20.668;2023-03-01T06:48:06;4.20;99.90
42989;DHT22;28622;43.716;20.668;2023-03-01T06:50:33;4.20;99.90
42989;DHT22;28622;43.716;20.668;2023-03-01T06:52:59;4.20;99.90
42989;DHT22;28622;43.716;20.668;2023-03-01T06:55:25;4.20;99.90
42989;DHT22;28622;43.716;20.668;2023-03-01T06:58:02;4.20;99.90
42989;DHT22;28622;43.716;20.668;2023-03-01T07:00:28;4.20;99.90
42989;DHT22;28622;43.716;20.668;2023-03-01T07:02:56;4.20;99.90
42989;DHT22;28622;43.716;20.668;2023-03-01T07:05:23;4.20;99.90
42989;DHT22;28622;43.716;20.668;2023-03-01T07:07:49;4.30;99.90
42989;DHT22;28622;43.716;20.668;2023-03-01T07:10:14;4.30;99.90
42989;DHT22;28622;43.716;20.668;2023-03-01T07:12:40;4.30;99.90
42989;DHT22;28622;43.716;20.668;2023-03-01T07:15:08;4.30;99.90
42989;DHT22;28622;43.716;20.668;2023-03-01T07:17:35;4.40;99.90
42989;DHT22;28622;43.716;20.668;2023-03-01T07:20:00;4.40;99.90
42989;DHT22;28622;43.716;20.668;2023-03-01T07:22:26;4.40;99.90
42989;DHT22;28622;43.716;20.668;2023-03-01T07:24:52;4.40;99.90
42989;DHT22;28622;43.716;20.668;2023-03-01T07:27:17;4.40;99.90
42989;DHT22;28622;43.716;20.668;2023-03-01T07:29:43;4.40;99.90
42989;DHT22;28622;43.716;20.668;2023-03-01T07:32:09;4.40;99.90
42989;DHT22;28622;43.716;20.668;2023-03-01T07:34:36;4.30;99.90
42989;DHT22;28622;43.716;20.668;2023-03-01T07:37:01;4.30;99.90
42989;DHT22;28622;43.716;20.668;2023-03-01T07:39:29;4.30;99.90
42989;DHT22;28622;43.716;20.668;2023-03-01T07:41:54;4.30;99.90
42989;DHT22;28622;43.716;20.668;2023-03-01T07:44:20;4.40;99.90
42989;DHT22;28622;43.716;20.668;2023-03-01T07:46:46;4.40;99.90
42989;DHT22;28622;43.716;20.668;2023-03-01T07:49:12;4.40;99.90
42989;DHT22;28622;43.716;20.668;2023-03-01T07:51:38;4.40;99.90
42989;DHT22;28622;43.716;20.668;2023-03-01T07:54:03;4.50;99.90
42989;DHT22;28622;43.716;20.668;2023-03-01T07:56:29;4.50;99.90
42989;DHT22;28622;43.716;20.668;2023-03-01T07:58:55;4.60;99.90
42989;DHT22;28622;43.716;20.668;2023-03-01T08:01:21;4.60;99.90
42989;DHT22;28622;43.716;20.668;2023-03-01T08:03:47;4.60;99.90
42989;DHT22;28622;43.716;20.668;2023-03-01T08:06:15;4.60;99.90
42989;DHT22;28622;43.716;20.668;2023-03-01T08:08:41;4.70;99.90
42989;DHT22;28622;43.716;20.668;2023-03-01T08:11:10;4.70;99.90
42989;DHT22;28622;43.716;20.668;2023-03-01T08:13:36;4.70;99.90
42989;DHT22;28622;43.716;20.668;2023-03-01T08:16:11;4.70;99.90
42989;DHT22;28622;43.716;20.668;2023-03-01T08:18:37;4.70;99.90
42989;DHT22;28622;43.716;20.668;2023-03-01T08:21:11;4.70;99.90
42989;DHT22;28622;43.716;20.668;2023-03-01T08:23:37;4.80;99.90
42989;DHT22;28622;43.716;20.668;2023-03-01T08:26:11;4.90;99.90
42989;DHT22;28622;43.716;20.668;2023-03-01T08:28:37;4.90;99.90
42989;DHT22;28622;43.716;20.668;2023-03-01T08:31:17;5.00;99.90
42989;DHT22;28622;43.716;20.668;2023-03-01T08:33:44;5.10;99.90
42989;DHT22;28622;43.716;20.668;2023-03-01T08:36:10;5.20;99.90
42989;DHT22;28622;43.716;20.668;2023-03-01T08:38:35;5.20;99.90
42989;DHT22;28622;43.716;20.668;2023-03-01T08:41:02;5.30;99.90
42989;DHT22;28622;43.716;20.668;2023-03-01T08:43:29;5.40;99.90
42989;DHT22;28622;43.716;20.668;2023-03-01T08:45:54;5.40;99.90
42989;DHT22;28622;43.716;20.668;2023-03-01T08:48:20;5.50;99.90
42989;DHT22;28622;43.716;20.668;2023-03-01T08:50:46;5.50;99.90
42989;DHT22;28622;43.716;20.668;2023-03-01T08:53:12;5.50;99.90
42989;DHT22;28622;43.716;20.668;2023-03-01T08:55:38;5.60;99.90
42989;DHT22;28622;43.716;20.668;2023-03-01T08:58:03;5.70;99.90
42989;DHT22;28622;43.716;20.668;2023-03-01T09:00:29;5.80;99.90
42989;DHT22;28622;43.716;20.668;2023-03-01T09:02:55;5.80;99.90
42989;DHT22;28622;43.716;20.668;2023-03-01T09:05:21;5.80;99.90
42989;DHT22;28622;43.716;20.668;2023-03-01T09:07:48;5.90;99.90
42989;DHT22;28622;43.716;20.668;2023-03-01T09:10:13;5.90;99.90
42989;DHT22;28622;43.716;20.668;2023-03-01T09:12:39;5.90;99.90
42989;DHT22;28622;43.716;20.668;2023-03-01T09:15:05;6.00;99.90
42989;DHT22;28622;43.716;20.668;2023-03-01T09:17:31;6.00;99.90
42989;DHT22;28622;43.716;20.668;2023-03-01T09:20:00;6.10;99.90
42989;DHT22;28622;43.716;20.668;2023-03-01T09:22:26;6.10;99.90
42989;DHT22;28622;43.716;20.668;2023-03-01T09:24:52;6.20;99.90
42989;DHT22;28622;43.716;20.668;2023-03-01T09:27:17;6.20;99.90
42989;DHT22;28622;43.716;20.668;2023-03-01T09:29:45;6.10;99.90
42989;DHT22;28622;43.716;20.668;2023-03-01T09:32:10;6.10;99.90
42989;DHT22;28622;43.716;20.668;2023-03-01T09:34:36;6.00;99.90
42989;DHT22;28622;43.716;20.668;2023-03-01T09:37:21;6.00;99.90
42989;DHT22;28622;43.716;20.668;2023-03-01T09:39:46;6.00;99.90
42989;DHT22;28622;43.716;20.668;2023-03-01T09:42:13;6.10;99.90
42989;DHT22;28622;43.716;20.668;2023-03-01T09:47:35;6.20;99.90
42989;DHT22;28622;43.716;20.668;2023-03-01T09:50:11;6.20;99.90
42989;DHT22;28622;43.716;20.668;2023-03-01T09:52:43;6.30;99.90
42989;DHT22;28622;43.716;20.668;2023-03-01T10:06:45;6.50;99.90
42989;DHT22;28622;43.716;20.668;2023-03-01T10:09:17;6.50;99.90
42989;DHT22;28622;43.716;20.668;2023-03-01T10:11:46;6.60;99.90
42989;DHT22;28622;43.716;20.668;2023-03-01T10:17:03;6.50;99.90
42989;DHT22;28622;43.716;20.668;2023-03-01T10:19:33;6.50;99.90
42989;DHT22;28622;43.716;20.668;2023-03-01T10:22:29;6.50;99.90
42989;DHT22;28622;43.716;20.668;2023-03-01T10:24:59;6.60;99.90
42989;DHT22;28622;43.716;20.668;2023-03-01T10:30:22;6.60;99.90
42989;DHT22;28622;43.716;20.668;2023-03-01T10:32:52;6.70;99.90
42989;DHT22;28622;43.716;20.668;2023-03-01T10:35:22;6.70;99.90
42989;DHT22;28622;43.716;20.668;2023-03-01T10:40:31;6.80;99.90
42989;DHT22;28622;43.716;20.668;2023-03-01T10:42:58;6.80;99.90
42989;DHT22;28622;43.716;20.668;2023-03-01T10:48:12;6.80;99.90
42989;DHT22;28622;43.716;20.668;2023-03-01T10:50:43;6.90;99.90
42989;DHT22;28622;43.716;20.668;2023-03-01T10:53:42;6.90;99.90
42989;DHT22;28622;43.716;20.668;2023-03-01T10:56:09;6.80;99.90
42989;DHT22;28622;43.716;20.668;2023-03-01T10:58:38;6.80;99.90
42989;DHT22;28622;43.716;20.668;2023-03-01T11:01:25;6.90;99.90
42989;DHT22;28622;43.716;20.668;2023-03-01T11:06:34;6.80;99.90
42989;DHT22;28622;43.716;20.668;2023-03-01T11:09:23;6.80;99.90
42989;DHT22;28622;43.716;20.668;2023-03-01T11:12:00;6.70;99.90
42989;DHT22;28622;43.716;20.668;2023-03-01T11:14:29;6.70;99.90
42989;DHT22;28622;43.716;20.668;2023-03-01T11:22:49;6.60;99.90
42989;DHT22;28622;43.716;20.668;2023-03-01T11:25:15;6.50;99.90
42989;DHT22;28622;43.716;20.668;2023-03-01T11:27:44;6.50;99.90
42989;DHT22;28622;43.716;20.668;2023-03-01T11:30:34;6.50;99.90
42989;DHT22;28622;43.716;20.668;2023-03-01T11:36:07;6.50;99.90
42989;DHT22;28622;43.716;20.668;2023-03-01T11:38:37;6.60;99.90
42989;DHT22;28622;43.716;20.668;2023-03-01T11:41:28;6.60;99.90
42989;DHT22;28622;43.716;20.668;2023-03-01T11:52:13;6.80;99.90
42989;DHT22;28622;43.716;20.668;2023-03-01T12:06:29;7.10;99.90
42989;DHT22;28622;43.716;20.668;2023-03-01T12:09:02;7.10;99.90
42989;DHT22;28622;43.716;20.668;2023-03-01T12:20:02;7.30;99.90
42989;DHT22;28622;43.716;20.668;2023-03-01T12:49:48;7.40;99.90
42989;DHT22;28622;43.716;20.668;2023-03-01T12:52:44;7.50;99.90
42989;DHT22;28622;43.716;20.668;2023-03-01T12:58:23;7.80;99.90
42989;DHT22;28622;43.716;20.668;2023-03-01T13:01:04;7.90;99.90
42989;DHT22;28622;43.716;20.668;2023-03-01T13:06:08;8.00;99.90
42989;DHT22;28622;43.716;20.668;2023-03-01T13:08:49;8.00;99.90
42989;DHT22;28622;43.716;20.668;2023-03-01T13:11:23;7.90;99.90
42989;DHT22;28622;43.716;20.668;2023-03-01T13:13:49;7.90;99.90
42989;DHT22;28622;43.716;20.668;2023-03-01T13:19:16;8.00;99.90
42989;DHT22;28622;43.716;20.668;2023-03-01T13:21:44;8.00;99.90
42989;DHT22;28622;43.716;20.668;2023-03-01T13:24:39;8.10;99.90
42989;DHT22;28622;43.716;20.668;2023-03-01T13:27:11;8.10;99.90
42989;DHT22;28622;43.716;20.668;2023-03-01T13:32:27;8.00;99.90
42989;DHT22;28622;43.716;20.668;2023-03-01T13:34:59;8.00;99.90
42989;DHT22;28622;43.716;20.668;2023-03-01T13:37:36;7.90;99.90
42989;DHT22;28622;43.716;20.668;2023-03-01T13:42:53;7.80;99.90
42989;DHT22;28622;43.716;20.668;2023-03-01T13:45:38;7.80;99.90
42989;DHT22;28622;43.716;20.668;2023-03-01T13:48:18;7.70;99.90
42989;DHT22;28622;43.716;20.668;2023-03-01T13:50:54;7.70;99.90
42989;DHT22;28622;43.716;20.668;2023-03-01T13:53:24;7.70;99.90
42989;DHT22;28622;43.716;20.668;2023-03-01T13:55:57;7.70;99.90
42989;DHT22;28622;43.716;20.668;2023-03-01T14:01:03;7.60;99.90
42989;DHT22;28622;43.716;20.668;2023-03-01T14:03:31;7.60;99.90
42989;DHT22;28622;43.716;20.668;2023-03-01T14:06:13;7.60;99.90
42989;DHT22;28622;43.716;20.668;2023-03-01T14:08:41;7.70;99.90
42989;DHT22;28622;43.716;20.668;2023-03-01T14:11:20;7.60;99.90
42989;DHT22;28622;43.716;20.668;2023-03-01T14:14:10;7.70;99.90
42989;DHT22;28622;43.716;20.668;2023-03-01T14:19:24;7.60;99.90
42989;DHT22;28622;43.716;20.668;2023-03-01T14:22:05;7.70;99.90
42989;DHT22;28622;43.716;20.668;2023-03-01T14:24:39;7.60;99.90
42989;DHT22;28622;43.716;20.668;2023-03-01T14:27:13;7.70;99.90
42989;DHT22;28622;43.716;20.668;2023-03-01T14:29:40;7.70;99.90
42989;DHT22;28622;43.716;20.668;2023-03-01T14:32:20;7.70;99.90
42989;DHT22;28622;43.716;20.668;2023-03-01T14:34:48;7.60;99.90
42989;DHT22;28622;43.716;20.668;2023-03-01T14:39:50;7.70;99.90
42989;DHT22;28622;43.716;20.668;2023-03-01T14:42:16;7.70;99.90
42989;DHT22;28622;43.716;20.668;2023-03-01T14:44:46;7.80;99.90
42989;DHT22;28622;43.716;20.668;2023-03-01T14:47:23;7.70;99.90
42989;DHT22;28622;43.716;20.668;2023-03-01T14:49:58;7.80;99.90
42989;DHT22;28622;43.716;20.668;2023-03-01T14:52:40;7.80;99.90
42989;DHT22;28622;43.716;20.668;2023-03-01T14:55:17;7.80;99.90
42989;DHT22;28622;43.716;20.668;2023-03-01T14:57:47;7.80;99.90
42989;DHT22;28622;43.716;20.668;2023-03-01T15:00:32;7.80;99.90
42989;DHT22;28622;43.716;20.668;2023-03-01T15:03:07;7.80;99.90
42989;DHT22;28622;43.716;20.668;2023-03-01T15:05:39;7.80;99.90
42989;DHT22;28622;43.716;20.668;2023-03-01T15:08:06;7.80;99.90
42989;DHT22;28622;43.716;20.668;2023-03-01T15:10:34;7.70;99.90
42989;DHT22;28622;43.716;20.668;2023-03-01T15:13:12;7.60;99.90
42989;DHT22;28622;43.716;20.668;2023-03-01T15:15:45;7.60;99.90
42989;DHT22;28622;43.716;20.668;2023-03-01T15:18:21;7.50;99.90
42989;DHT22;28622;43.716;20.668;2023-03-01T15:20:50;7.50;99.90
42989;DHT22;28622;43.716;20.668;2023-03-01T15:23:25;7.50;99.90
42989;DHT22;28622;43.716;20.668;2023-03-01T15:25:53;7.60;99.90
42989;DHT22;28622;43.716;20.668;2023-03-01T15:28:31;7.60;99.90
42989;DHT22;28622;43.716;20.668;2023-03-01T15:31:02;7.60;99.90
42989;DHT22;28622;43.716;20.668;2023-03-01T15:33:34;7.50;99.90
42989;DHT22;28622;43.716;20.668;2023-03-01T15:36:01;7.50;99.90
42989;DHT22;28622;43.716;20.668;2023-03-01T15:38:50;7.50;99.90
42989;DHT22;28622;43.716;20.668;2023-03-01T15:41:25;7.40;99.90
42989;DHT22;28622;43.716;20.668;2023-03-01T15:43:51;7.50;99.90
42989;DHT22;28622;43.716;20.668;2023-03-01T15:46:33;7.40;99.90
42989;DHT22;28622;43.716;20.668;2023-03-01T15:49:24;7.40;99.90
42989;DHT22;28622;43.716;20.668;2023-03-01T15:51:53;7.40;99.90
42989;DHT22;28622;43.716;20.668;2023-03-01T15:54:22;7.40;99.90
42989;DHT22;28622;43.716;20.668;2023-03-01T15:56:48;7.40;99.90
42989;DHT22;28622;43.716;20.668;2023-03-01T15:59:14;7.40;99.90
42989;DHT22;28622;43.716;20.668;2023-03-01T16:01:41;7.30;99.90
42989;DHT22;28622;43.716;20.668;2023-03-01T16:04:10;7.40;99.90
42989;DHT22;28622;43.716;20.668;2023-03-01T16:06:38;7.30;99.90
42989;DHT22;28622;43.716;20.668;2023-03-01T16:09:04;7.20;99.90
42989;DHT22;28622;43.716;20.668;2023-03-01T16:11:30;7.20;99.90
42989;DHT22;28622;43.716;20.668;2023-03-01T16:14:01;7.20;99.90
42989;DHT22;28622;43.716;20.668;2023-03-01T16:16:27;7.10;99.90
42989;DHT22;28622;43.716;20.668;2023-03-01T16:18:52;7.10;99.90
42989;DHT22;28622;43.716;20.668;2023-03-01T16:21:24;7.10;99.90
42989;DHT22;28622;43.716;20.668;2023-03-01T16:23:51;7.10;99.90
42989;DHT22;28622;43.716;20.668;2023-03-01T16:26:17;7.10;99.90
42989;DHT22;28622;43.716;20.668;2023-03-01T16:28:44;7.10;99.90
42989;DHT22;28622;43.716;20.668;2023-03-01T16:31:10;7.00;99.90
42989;DHT22;28622;43.716;20.668;2023-03-01T16:33:37;7.00;99.90
42989;DHT22;28622;43.716;20.668;2023-03-01T16:36:10;7.00;99.90
42989;DHT22;28622;43.716;20.668;2023-03-01T16:38:36;7.00;99.90
42989;DHT22;28622;43.716;20.668;2023-03-01T16:41:02;7.00;99.90
42989;DHT22;28622;43.716;20.668;2023-03-01T16:43:29;6.90;99.90
42989;DHT22;28622;43.716;20.668;2023-03-01T16:45:55;6.90;99.90
42989;DHT22;28622;43.716;20.668;2023-03-01T16:48:22;6.90;99.90
42989;DHT22;28622;43.716;20.668;2023-03-01T16:50:58;7.00;99.90
42989;DHT22;28622;43.716;20.668;2023-03-01T16:53:24;7.00;99.90
42989;DHT22;28622;43.716;20.668;2023-03-01T16:55:57;7.00;99.90
42989;DHT22;28622;43.716;20.668;2023-03-01T16:58:23;6.90;99.90
42989;DHT22;28622;43.716;20.668;2023-03-01T17:00:51;6.90;99.90
42989;DHT22;28622;43.716;20.668;2023-03-01T17:03:19;6.90;99.90
42989;DHT22;28622;43.716;20.668;2023-03-01T17:05:45;6.90;99.90
42989;DHT22;28622;43.716;20.668;2023-03-01T17:08:11;6.90;99.90
42989;DHT22;28622;43.716;20.668;2023-03-01T17:10:37;6.90;99.90
42989;DHT22;28622;43.716;20.668;2023-03-01T17:13:03;6.90;99.90
42989;DHT22;28622;43.716;20.668;2023-03-01T17:15:29;6.90;99.90
42989;DHT22;28622;43.716;20.668;2023-03-01T17:17:54;6.90;99.90
42989;DHT22;28622;43.716;20.668;2023-03-01T17:20:20;6.90;99.90
42989;DHT22;28622;43.716;20.668;2023-03-01T17:22:46;6.90;99.90
42989;DHT22;28622;43.716;20.668;2023-03-01T17:25:12;6.80;99.90
42989;DHT22;28622;43.716;20.668;2023-03-01T17:27:39;6.90;99.90
42989;DHT22;28622;43.716;20.668;2023-03-01T17:30:06;6.90;99.90
42989;DHT22;28622;43.716;20.668;2023-03-01T17:32:32;6.90;99.90
42989;DHT22;28622;43.716;20.668;2023-03-01T17:34:58;6.80;99.90
42989;DHT22;28622;43.716;20.668;2023-03-01T17:37:24;6.80;99.90
42989;DHT22;28622;43.716;20.668;2023-03-01T17:39:50;6.80;99.90
42989;DHT22;28622;43.716;20.668;2023-03-01T17:42:15;6.80;99.90
42989;DHT22;28622;43.716;20.668;2023-03-01T17:44:41;6.80;99.90
42989;DHT22;28622;43.716;20.668;2023-03-01T17:47:08;6.80;99.90
42989;DHT22;28622;43.716;20.668;2023-03-01T17:49:34;6.80;99.90